sensor_id;sensor_type;location;lat;lon;timestamp;temperature;humidity
43049;DHT22;28673;44.412;11.918;2024-03-29T00:01:21;10.70;99.90
43049;DHT22;28673;44.412;11.918;2024-03-29T00:03:47;10.60;99.90
43049;DHT22;28673;44.412;11.918;2024-03-29T00:06:13;10.50;99.90
43049;DHT22;28673;44.412;11.918;2024-03-29T00:08:39;10.50;99.90
43049;DHT22;28673;44.412;11.918;2024-03-29T00:11:05;10.40;99.90
43049;DHT22;28673;44.412;11.918;2024-03-29T00:13:30;10.40;99.90
43049;DHT22;28673;44.412;11.918;2024-03-29T00:15:57;10.40;99.90
43049;DHT22;28673;44.412;11.918;2024-03-29T00:18:23;10.40;99.90
43049;DHT22;28673;44.412;11.918;2024-03-29T00:20:49;10.30;99.90
43049;DHT22;28673;44.412;11.918;2024-03-29T00:23:15;10.30;99.90
43049;DHT22;28673;44.412;11.918;2024-03-29T00:25:40;10.30;99.90
43049;DHT22;28673;44.412;11.918;2024-03-29T00:28:06;10.30;99.90
43049;DHT22;28673;44.412;11.918;2024-03-29T00:30:32;10.20;99.90
43049;DHT22;28673;44.412;11.918;2024-03-29T00:32:58;10.30;99.90
43049;DHT22;28673;44.412;11.918;2024-03-29T00:35:24;10.30;99.90
43049;DHT22;28673;44.412;11.918;2024-03-29T00:37:50;10.20;99.90
43049;DHT22;28673;44.412;11.918;2024-03-29T00:40:16;10.30;99.90
43049;DHT22;28673;44.412;11.918;2024-03-29T00:42:42;10.20;99.90
43049;DHT22;28673;44.412;11.918;2024-03-29T00:45:08;10.20;99.90
43049;DHT22;28673;44.412;11.918;2024-03-29T00:47:34;10.20;99.90
43049;DHT22;28673;44.412;11.918;2024-03-29T00:50:00;10.20;99.90
43049;DHT22;28673;44.412;11.918;2024-03-29T00:52:26;10.20;99.90
43049;DHT22;28673;44.412;11.918;2024-03-29T00:54:51;10.20;99.90
43049;DHT22;28673;44.412;11.918;2024-03-29T00:57:18;10.20;99.90
43049;DHT22;28673;44.412;11.918;2024-03-29T00:59:44;10.20;99.90
43049;DHT22;28673;44.412;11.918;2024-03-29T01:02:10;10.10;99.90
43049;DHT22;28673;44.412;11.918;2024-03-29T01:04:36;10.10;99.90
43049;DHT22;28673;44.412;11.918;2024-03-29T01:07:03;10.10;99.90
43049;DHT22;28673;44.412;11.918;2024-03-29T01:09:29;10.10;99.90
43049;DHT22;28673;44.412;11.918;2024-03-29T01:11:55;10.10;99.90
43049;DHT22;28673;44.412;11.918;2024-03-29T01:14:21;10.10;99.90
43049;DHT22;28673;44.412;11.918;2024-03-29T01:16:47;10.10;99.90
43049;DHT22;28673;44.412;11.918;2024-03-29T01:19:12;10.00;99.90
43049;DHT22;28673;44.412;11.918;2024-03-29T01:21:38;9.90;99.90
43049;DHT22;28673;44.412;11.918;2024-03-29T01:24:04;9.90;99.90
43049;DHT22;28673;44.412;11.918;2024-03-29T01:26:30;9.80;99.90
43049;DHT22;28673;44.412;11.918;2024-03-29T01:28:56;9.80;99.90
43049;DHT22;28673;44.412;11.918;2024-03-29T01:31:23;9.80;99.90
43049;DHT22;28673;44.412;11.918;2024-03-29T01:33:49;9.80;99.90
43049;DHT22;28673;44.412;11.918;2024-03-29T01:36:15;9.70;99.90
43049;DHT22;28673;44.412;11.918;2024-03-29T01:38:41;9.70;99.90
43049;DHT22;28673;44.412;11.918;2024-03-29T01:41:08;9.70;99.90
43049;DHT22;28673;44.412;11.918;2024-03-29T01:43:34;9.80;99.90
43049;DHT22;28673;44.412;11.918;2024-03-29T01:46:00;9.80;99.90
43049;DHT22;28673;44.412;11.918;2024-03-29T01:48:26;9.70;99.90
43049;DHT22;28673;44.412;11.918;2024-03-29T01:50:55;9.70;99.90
43049;DHT22;28673;44.412;11.918;2024-03-29T01:53:22;9.80;99.90
43049;DHT22;28673;44.412;11.918;2024-03-29T01:55:49;9.70;99.90
43049;DHT22;28673;44.412;11.918;2024-03-29T01:58:16;9.70;99.90
43049;DHT22;28673;44.412;11.918;2024-03-29T02:00:48;9.70;99.90
43049;DHT22;28673;44.412;11.918;2024-03-29T02:03:16;9.70;99.90
43049;DHT22;28673;44.412;11.918;2024-03-29T02:05:42;9.70;99.90
43049;DHT22;28673;44.412;11.918;2024-03-29T02:08:10;9.70;99.90
43049;DHT22;28673;44.412;11.918;2024-03-29T02:10:36;9.70;99.90
43049;DHT22;28673;44.412;11.918;2024-03-29T02:13:02;9.70;99.90
43049;DHT22;28673;44.412;11.918;2024-03-29T02:15:29;9.70;99.90
43049;DHT22;28673;44.412;11.918;2024-03-29T02:17:55;9.80;99.90
43049;DHT22;28673;44.412;11.918;2024-03-29T02:20:21;9.80;99.90
43049;DHT22;28673;44.412;11.918;2024-03-29T02:23:11;9.80;99.90
43049;DHT22;28673;44.412;11.918;2024-03-29T02:25:39;9.80;99.90
43049;DHT22;28673;44.412;11.918;2024-03-29T02:28:05;9.90;99.90
43049;DHT22;28673;44.412;11.918;2024-03-29T02:30:31;9.90;99.90
43049;DHT22;28673;44.412;11.918;2024-03-29T02:33:01;9.90;99.90
43049;DHT22;28673;44.412;11.918;2024-03-29T02:35:27;10.00;99.90
43049;DHT22;28673;44.412;11.918;2024-03-29T02:37:54;10.10;99.90
43049;DHT22;28673;44.412;11.918;2024-03-29T02:40:20;10.20;99.90
43049;DHT22;28673;44.412;11.918;2024-03-29T02:42:48;10.30;99.90
43049;DHT22;28673;44.412;11.918;2024-03-29T02:45:14;10.30;99.90
43049;DHT22;28673;44.412;11.918;2024-03-29T02:47:40;10.40;99.90
43049;DHT22;28673;44.412;11.918;2024-03-29T02:50:08;10.50;99.90
43049;DHT22;28673;44.412;11.918;2024-03-29T02:52:34;10.50;99.90
43049;DHT22;28673;44.412;11.918;2024-03-29T02:55:00;10.50;99.90
43049;DHT22;28673;44.412;11.918;2024-03-29T02:57:26;10.60;99.90
43049;DHT22;28673;44.412;11.918;2024-03-29T02:59:52;10.60;99.90
43049;DHT22;28673;44.412;11.918;2024-03-29T03:02:17;10.70;99.90
43049;DHT22;28673;44.412;11.918;2024-03-29T03:04:43;10.70;99.90
43049;DHT22;28673;44.412;11.918;2024-03-29T03:07:09;10.80;99.90
43049;DHT22;28673;44.412;11.918;2024-03-29T03:09:53;10.80;99.90
43049;DHT22;28673;44.412;11.918;2024-03-29T03:12:37;10.80;99.90
43049;DHT22;28673;44.412;11.918;2024-03-29T03:15:04;10.80;99.90
43049;DHT22;28673;44.412;11.918;2024-03-29T03:17:31;10.80;99.90
43049;DHT22;28673;44.412;11.918;2024-03-29T03:19:57;10.80;99.90
43049;DHT22;28673;44.412;11.918;2024-03-29T03:22:23;10.80;99.90
43049;DHT22;28673;44.412;11.918;2024-03-29T03:24:49;10.80;99.90
43049;DHT22;28673;44.412;11.918;2024-03-29T03:27:15;10.80;99.90
43049;DHT22;28673;44.412;11.918;2024-03-29T03:29:41;10.70;99.90
43049;DHT22;28673;44.412;11.918;2024-03-29T03:32:07;10.70;99.90
43049;DHT22;28673;44.412;11.918;2024-03-29T03:34:33;10.70;99.90
43049;DHT22;28673;44.412;11.918;2024-03-29T03:36:59;10.70;99.90
43049;DHT22;28673;44.412;11.918;2024-03-29T03:39:25;10.60;99.90
43049;DHT22;28673;44.412;11.918;2024-03-29T03:41:51;10.60;99.90
43049;DHT22;28673;44.412;11.918;2024-03-29T03:44:17;10.60;99.90
43049;DHT22;28673;44.412;11.918;2024-03-29T03:46:42;10.50;99.90
43049;DHT22;28673;44.412;11.918;2024-03-29T03:49:08;10.50;99.90
43049;DHT22;28673;44.412;11.918;2024-03-29T03:51:34;10.50;99.90
43049;DHT22;28673;44.412;11.918;2024-03-29T03:54:00;10.50;99.90
43049;DHT22;28673;44.412;11.918;2024-03-29T03:56:26;10.50;99.90
43049;DHT22;28673;44.412;11.918;2024-03-29T03:58:51;10.60;99.90
43049;DHT22;28673;44.412;11.918;2024-03-29T04:01:17;10.60;99.90
43049;DHT22;28673;44.412;11.918;2024-03-29T04:03:43;10.70;99.90
43049;DHT22;28673;44.412;11.918;2024-03-29T04:06:09;10.70;99.90
43049;DHT22;28673;44.412;11.918;2024-03-29T04:08:34;10.60;99.90
43049;DHT22;28673;44.412;11.918;2024-03-29T04:11:04;10.70;99.90
43049;DHT22;28673;44.412;11.918;2024-03-29T04:13:30;10.70;99.90
43049;DHT22;28673;44.412;11.918;2024-03-29T04:16:07;10.60;99.90
43049;DHT22;28673;44.412;11.918;2024-03-29T04:18:34;10.60;99.90
43049;DHT22;28673;44.412;11.918;2024-03-29T04:21:03;10.60;99.90
43049;DHT22;28673;44.412;11.918;2024-03-29T04:23:30;10.50;99.90
43049;DHT22;28673;44.412;11.918;2024-03-29T04:25:57;10.50;99.90
43049;DHT22;28673;44.412;11.918;2024-03-29T04:28:24;10.50;99.90
43049;DHT22;28673;44.412;11.918;2024-03-29T04:31:00;10.50;99.90
43049;DHT22;28673;44.412;11.918;2024-03-29T04:33:26;10.40;99.90
43049;DHT22;28673;44.412;11.918;2024-03-29T04:35:57;10.40;99.90
43049;DHT22;28673;44.412;11.918;2024-03-29T04:38:24;10.40;99.90
43049;DHT22;28673;44.412;11.918;2024-03-29T04:40:52;10.40;99.90
43049;DHT22;28673;44.412;11.918;2024-03-29T04:43:18;10.40;99.90
43049;DHT22;28673;44.412;11.918;2024-03-29T04:45:44;10.40;99.90
43049;DHT22;28673;44.412;11.918;2024-03-29T04:48:11;10.50;99.90
43049;DHT22;28673;44.412;11.918;2024-03-29T04:50:37;10.50;99.90
43049;DHT22;28673;44.412;11.918;2024-03-29T04:53:03;10.50;99.90
43049;DHT22;28673;44.412;11.918;2024-03-29T04:55:29;10.50;99.90
43049;DHT22;28673;44.412;11.918;2024-03-29T04:57:55;10.50;99.90
43049;DHT22;28673;44.412;11.918;2024-03-29T05:00:21;10.60;99.90
43049;DHT22;28673;44.412;11.918;2024-03-29T05:02:47;10.60;99.90
43049;DHT22;28673;44.412;11.918;2024-03-29T05:05:13;10.60;99.90
43049;DHT22;28673;44.412;11.918;2024-03-29T05:07:39;10.60;99.90
43049;DHT22;28673;44.412;11.918;2024-03-29T05:10:05;10.60;99.90
43049;DHT22;28673;44.412;11.918;2024-03-29T05:12:35;10.60;99.90
43049;DHT22;28673;44.412;11.918;2024-03-29T05:15:01;10.60;99.90
43049;DHT22;28673;44.412;11.918;2024-03-29T05:17:27;10.60;99.90
43049;DHT22;28673;44.412;11.918;2024-03-29T05:19:54;10.60;99.90
43049;DHT22;28673;44.412;11.918;2024-03-29T05:22:19;10.60;99.90
43049;DHT22;28673;44.412;11.918;2024-03-29T05:24:45;10.60;99.90
43049;DHT22;28673;44.412;11.918;2024-03-29T05:27:12;10.60;99.90
43049;DHT22;28673;44.412;11.918;2024-03-29T05:29:38;10.60;99.90
43049;DHT22;28673;44.412;11.918;2024-03-29T05:32:05;10.60;99.90
43049;DHT22;28673;44.412;11.918;2024-03-29T05:34:30;10.70;99.90
43049;DHT22;28673;44.412;11.918;2024-03-29T05:36:57;10.70;99.90
43049;DHT22;28673;44.412;11.918;2024-03-29T05:39:22;10.70;99.90
43049;DHT22;28673;44.412;11.918;2024-03-29T05:41:48;10.80;99.90
43049;DHT22;28673;44.412;11.918;2024-03-29T05:44:14;10.80;99.90
43049;DHT22;28673;44.412;11.918;2024-03-29T05:46:40;10.80;99.90
43049;DHT22;28673;44.412;11.918;2024-03-29T05:49:09;10.80;99.90
43049;DHT22;28673;44.412;11.918;2024-03-29T05:51:35;10.90;99.90
43049;DHT22;28673;44.412;11.918;2024-03-29T05:54:01;10.90;99.90
43049;DHT22;28673;44.412;11.918;2024-03-29T05:56:29;11.00;99.90
43049;DHT22;28673;44.412;11.918;2024-03-29T05:58:55;11.00;99.90
43049;DHT22;28673;44.412;11.918;2024-03-29T06:01:21;11.10;99.90
43049;DHT22;28673;44.412;11.918;2024-03-29T06:03:49;11.20;99.90
43049;DHT22;28673;44.412;11.918;2024-03-29T06:06:17;11.20;99.90
43049;DHT22;28673;44.412;11.918;2024-03-29T06:08:44;11.30;99.90
43049;DHT22;28673;44.412;11.918;2024-03-29T06:11:09;11.40;99.90
43049;DHT22;28673;44.412;11.918;2024-03-29T06:13:35;11.40;99.90
43049;DHT22;28673;44.412;11.918;2024-03-29T06:16:25;11.50;99.90
43049;DHT22;28673;44.412;11.918;2024-03-29T06:19:10;11.50;99.90
43049;DHT22;28673;44.412;11.918;2024-03-29T06:21:36;11.60;99.90
43049;DHT22;28673;44.412;11.918;2024-03-29T06:24:09;11.70;99.90
43049;DHT22;28673;44.412;11.918;2024-03-29T06:26:40;11.70;99.90
43049;DHT22;28673;44.412;11.918;2024-03-29T06:29:05;11.70;99.90
43049;DHT22;28673;44.412;11.918;2024-03-29T06:31:31;11.80;99.90
43049;DHT22;28673;44.412;11.918;2024-03-29T06:33:57;11.90;99.90
43049;DHT22;28673;44.412;11.918;2024-03-29T06:36:23;11.90;99.90
43049;DHT22;28673;44.412;11.918;2024-03-29T06:38:49;12.00;99.90
43049;DHT22;28673;44.412;11.918;2024-03-29T06:41:15;12.10;99.90
43049;DHT22;28673;44.412;11.918;2024-03-29T06:43:42;12.20;99.90
43049;DHT22;28673;44.412;11.918;2024-03-29T06:46:11;12.30;99.90
43049;DHT22;28673;44.412;11.918;2024-03-29T06:48:38;12.40;99.90
43049;DHT22;28673;44.412;11.918;2024-03-29T06:51:04;12.50;99.90
43049;DHT22;28673;44.412;11.918;2024-03-29T06:53:30;12.60;99.90
43049;DHT22;28673;44.412;11.918;2024-03-29T06:55:56;12.70;99.90
43049;DHT22;28673;44.412;11.918;2024-03-29T06:58:23;12.80;99.90
43049;DHT22;28673;44.412;11.918;2024-03-29T07:00:49;13.00;99.90
43049;DHT22;28673;44.412;11.918;2024-03-29T07:03:15;13.10;99.90
43049;DHT22;28673;44.412;11.918;2024-03-29T07:05:42;13.30;99.90
43049;DHT22;28673;44.412;11.918;2024-03-29T07:08:08;13.40;99.90
43049;DHT22;28673;44.412;11.918;2024-03-29T07:10:34;13.50;99.90
43049;DHT22;28673;44.412;11.918;2024-03-29T07:12:59;13.60;99.90
43049;DHT22;28673;44.412;11.918;2024-03-29T07:15:25;13.70;99.90
43049;DHT22;28673;44.412;11.918;2024-03-29T07:17:51;13.70;99.90
43049;DHT22;28673;44.412;11.918;2024-03-29T07:20:18;13.80;99.90
43049;DHT22;28673;44.412;11.918;2024-03-29T07:22:44;13.90;99.90
43049;DHT22;28673;44.412;11.918;2024-03-29T07:25:11;14.00;99.90
43049;DHT22;28673;44.412;11.918;2024-03-29T07:27:37;14.10;99.90
43049;DHT22;28673;44.412;11.918;2024-03-29T07:30:03;14.10;99.90
43049;DHT22;28673;44.412;11.918;2024-03-29T07:32:30;14.20;99.90
43049;DHT22;28673;44.412;11.918;2024-03-29T07:34:56;14.30;99.90
43049;DHT22;28673;44.412;11.918;2024-03-29T07:37:26;14.40;99.90
43049;DHT22;28673;44.412;11.918;2024-03-29T07:39:52;14.50;99.90
43049;DHT22;28673;44.412;11.918;2024-03-29T07:42:18;14.50;99.90
43049;DHT22;28673;44.412;11.918;2024-03-29T07:44:46;14.60;99.90
43049;DHT22;28673;44.412;11.918;2024-03-29T07:47:11;14.70;99.90
43049;DHT22;28673;44.412;11.918;2024-03-29T07:49:40;14.90;99.90
43049;DHT22;28673;44.412;11.918;2024-03-29T07:52:06;15.00;99.90
43049;DHT22;28673;44.412;11.918;2024-03-29T07:54:34;15.00;99.90
43049;DHT22;28673;44.412;11.918;2024-03-29T07:57:00;15.10;99.90
43049;DHT22;28673;44.412;11.918;2024-03-29T07:59:27;15.20;99.90
43049;DHT22;28673;44.412;11.918;2024-03-29T08:01:53;15.30;99.90
43049;DHT22;28673;44.412;11.918;2024-03-29T08:04:20;15.40;99.90
43049;DHT22;28673;44.412;11.918;2024-03-29T08:06:46;15.50;99.90
43049;DHT22;28673;44.412;11.918;2024-03-29T08:09:12;15.50;99.90
43049;DHT22;28673;44.412;11.918;2024-03-29T08:11:40;15.60;99.90
43049;DHT22;28673;44.412;11.918;2024-03-29T08:14:06;15.70;99.90
43049;DHT22;28673;44.412;11.918;2024-03-29T08:16:33;15.70;99.90
43049;DHT22;28673;44.412;11.918;2024-03-29T08:18:58;15.80;99.90
43049;DHT22;28673;44.412;11.918;2024-03-29T08:21:25;15.90;99.90
43049;DHT22;28673;44.412;11.918;2024-03-29T08:23:53;15.90;99.90
43049;DHT22;28673;44.412;11.918;2024-03-29T08:26:21;16.00;99.90
43049;DHT22;28673;44.412;11.918;2024-03-29T08:28:47;16.00;99.90
43049;DHT22;28673;44.412;11.918;2024-03-29T08:31:13;16.10;99.90
43049;DHT22;28673;44.412;11.918;2024-03-29T08:33:38;16.20;99.90
43049;DHT22;28673;44.412;11.918;2024-03-29T08:36:08;16.30;99.90
43049;DHT22;28673;44.412;11.918;2024-03-29T08:38:35;16.40;99.90
43049;DHT22;28673;44.412;11.918;2024-03-29T08:41:01;16.50;99.90
43049;DHT22;28673;44.412;11.918;2024-03-29T08:43:27;16.60;99.90
43049;DHT22;28673;44.412;11.918;2024-03-29T08:45:53;16.60;99.90
43049;DHT22;28673;44.412;11.918;2024-03-29T08:48:18;16.70;99.90
43049;DHT22;28673;44.412;11.918;2024-03-29T08:50:44;16.80;99.90
43049;DHT22;28673;44.412;11.918;2024-03-29T08:53:10;16.90;99.90
43049;DHT22;28673;44.412;11.918;2024-03-29T08:55:36;16.90;99.90
43049;DHT22;28673;44.412;11.918;2024-03-29T08:58:03;17.00;99.90
43049;DHT22;28673;44.412;11.918;2024-03-29T09:00:30;17.10;99.90
43049;DHT22;28673;44.412;11.918;2024-03-29T09:02:56;17.20;99.90
43049;DHT22;28673;44.412;11.918;2024-03-29T09:05:22;17.30;99.90
43049;DHT22;28673;44.412;11.918;2024-03-29T09:07:51;17.40;99.90
43049;DHT22;28673;44.412;11.918;2024-03-29T09:10:17;17.50;99.90
43049;DHT22;28673;44.412;11.918;2024-03-29T09:12:43;17.60;99.90
43049;DHT22;28673;44.412;11.918;2024-03-29T09:15:09;17.60;99.90
43049;DHT22;28673;44.412;11.918;2024-03-29T09:17:45;17.70;99.90
43049;DHT22;28673;44.412;11.918;2024-03-29T09:20:11;17.80;99.90
43049;DHT22;28673;44.412;11.918;2024-03-29T09:22:37;17.90;99.90
43049;DHT22;28673;44.412;11.918;2024-03-29T09:25:07;17.90;99.90
43049;DHT22;28673;44.412;11.918;2024-03-29T09:27:36;18.00;99.90
43049;DHT22;28673;44.412;11.918;2024-03-29T09:30:03;18.10;99.90
43049;DHT22;28673;44.412;11.918;2024-03-29T09:32:31;18.20;99.90
43049;DHT22;28673;44.412;11.918;2024-03-29T09:34:57;18.20;99.90
43049;DHT22;28673;44.412;11.918;2024-03-29T09:37:23;18.40;99.90
43049;DHT22;28673;44.412;11.918;2024-03-29T09:39:49;18.50;99.90
43049;DHT22;28673;44.412;11.918;2024-03-29T09:42:16;18.60;99.90
43049;DHT22;28673;44.412;11.918;2024-03-29T09:44:43;18.80;99.90
43049;DHT22;28673;44.412;11.918;2024-03-29T09:47:09;19.00;99.90
43049;DHT22;28673;44.412;11.918;2024-03-29T09:49:38;19.20;99.90
43049;DHT22;28673;44.412;11.918;2024-03-29T09:52:04;19.30;99.90
43049;DHT22;28673;44.412;11.918;2024-03-29T09:54:31;19.40;99.90
43049;DHT22;28673;44.412;11.918;2024-03-29T09:56:57;19.50;99.90
43049;DHT22;28673;44.412;11.918;2024-03-29T09:59:24;19.60;99.90
43049;DHT22;28673;44.412;11.918;2024-03-29T10:01:51;19.80;99.90
43049;DHT22;28673;44.412;11.918;2024-03-29T10:04:18;19.90;99.90
43049;DHT22;28673;44.412;11.918;2024-03-29T10:06:56;20.00;99.90
43049;DHT22;28673;44.412;11.918;2024-03-29T10:09:22;20.00;99.90
43049;DHT22;28673;44.412;11.918;2024-03-29T10:11:48;20.10;99.90
43049;DHT22;28673;44.412;11.918;2024-03-29T10:14:14;20.20;99.90
43049;DHT22;28673;44.412;11.918;2024-03-29T10:16:41;20.30;99.90
43049;DHT22;28673;44.412;11.918;2024-03-29T10:19:07;20.50;99.90
43049;DHT22;28673;44.412;11.918;2024-03-29T10:21:34;20.60;99.90
43049;DHT22;28673;44.412;11.918;2024-03-29T10:24:15;20.70;99.90
43049;DHT22;28673;44.412;11.918;2024-03-29T10:26:46;20.80;99.90
43049;DHT22;28673;44.412;11.918;2024-03-29T10:29:13;21.00;99.90
43049;DHT22;28673;44.412;11.918;2024-03-29T10:31:39;21.10;99.90
43049;DHT22;28673;44.412;11.918;2024-03-29T10:34:05;21.30;99.90
43049;DHT22;28673;44.412;11.918;2024-03-29T10:36:32;21.40;99.90
43049;DHT22;28673;44.412;11.918;2024-03-29T10:39:10;21.60;99.90
43049;DHT22;28673;44.412;11.918;2024-03-29T10:41:43;21.70;99.90
43049;DHT22;28673;44.412;11.918;2024-03-29T10:44:10;21.90;99.90
43049;DHT22;28673;44.412;11.918;2024-03-29T10:46:42;22.10;99.90
43049;DHT22;28673;44.412;11.918;2024-03-29T10:49:10;22.20;99.90
43049;DHT22;28673;44.412;11.918;2024-03-29T10:51:40;22.40;99.90
43049;DHT22;28673;44.412;11.918;2024-03-29T10:54:10;22.50;99.90
43049;DHT22;28673;44.412;11.918;2024-03-29T10:56:37;22.70;99.90
43049;DHT22;28673;44.412;11.918;2024-03-29T10:59:37;22.80;99.90
43049;DHT22;28673;44.412;11.918;2024-03-29T11:02:12;22.90;99.90
43049;DHT22;28673;44.412;11.918;2024-03-29T11:04:40;23.00;99.90
43049;DHT22;28673;44.412;11.918;2024-03-29T11:07:09;23.10;99.90
43049;DHT22;28673;44.412;11.918;2024-03-29T11:09:38;23.20;99.90
43049;DHT22;28673;44.412;11.918;2024-03-29T11:12:06;23.30;99.90
43049;DHT22;28673;44.412;11.918;2024-03-29T11:14:40;23.40;99.90
43049;DHT22;28673;44.412;11.918;2024-03-29T11:17:07;23.30;99.90
43049;DHT22;28673;44.412;11.918;2024-03-29T11:19:35;23.30;99.90
43049;DHT22;28673;44.412;11.918;2024-03-29T11:22:02;23.20;99.90
43049;DHT22;28673;44.412;11.918;2024-03-29T11:24:28;23.20;99.90
43049;DHT22;28673;44.412;11.918;2024-03-29T11:26:54;23.10;99.90
43049;DHT22;28673;44.412;11.918;2024-03-29T11:29:22;23.00;99.90
43049;DHT22;28673;44.412;11.918;2024-03-29T11:31:55;23.00;99.90
43049;DHT22;28673;44.412;11.918;2024-03-29T11:34:21;23.00;99.90
43049;DHT22;28673;44.412;11.918;2024-03-29T11:36:47;22.90;99.90
43049;DHT22;28673;44.412;11.918;2024-03-29T11:39:20;22.80;99.90
43049;DHT22;28673;44.412;11.918;2024-03-29T11:41:47;22.80;99.90
43049;DHT22;28673;44.412;11.918;2024-03-29T11:44:14;22.70;99.90
43049;DHT22;28673;44.412;11.918;2024-03-29T11:46:40;22.70;99.90
43049;DHT22;28673;44.412;11.918;2024-03-29T11:49:06;22.70;99.90
43049;DHT22;28673;44.412;11.918;2024-03-29T11:51:32;22.70;99.90
43049;DHT22;28673;44.412;11.918;2024-03-29T11:54:00;22.80;99.90
43049;DHT22;28673;44.412;11.918;2024-03-29T11:56:26;22.90;99.90
43049;DHT22;28673;44.412;11.918;2024-03-29T11:58:52;22.90;99.90
43049;DHT22;28673;44.412;11.918;2024-03-29T12:01:19;22.80;99.90
43049;DHT22;28673;44.412;11.918;2024-03-29T12:03:47;22.80;99.90
43049;DHT22;28673;44.412;11.918;2024-03-29T12:06:14;22.90;99.90
43049;DHT22;28673;44.412;11.918;2024-03-29T12:08:42;23.00;99.90
43049;DHT22;28673;44.412;11.918;2024-03-29T12:11:09;23.00;99.90
43049;DHT22;28673;44.412;11.918;2024-03-29T12:13:34;23.00;99.90
43049;DHT22;28673;44.412;11.918;2024-03-29T12:16:01;23.00;99.90
43049;DHT22;28673;44.412;11.918;2024-03-29T12:18:27;23.00;99.90
43049;DHT22;28673;44.412;11.918;2024-03-29T12:20:59;23.00;99.90
43049;DHT22;28673;44.412;11.918;2024-03-29T12:23:25;22.90;99.90
43049;DHT22;28673;44.412;11.918;2024-03-29T12:25:53;22.80;99.90
43049;DHT22;28673;44.412;11.918;2024-03-29T12:28:21;22.80;99.90
43049;DHT22;28673;44.412;11.918;2024-03-29T12:30:48;22.80;99.90
43049;DHT22;28673;44.412;11.918;2024-03-29T12:33:16;22.70;99.90
43049;DHT22;28673;44.412;11.918;2024-03-29T12:35:46;22.70;99.90
43049;DHT22;28673;44.412;11.918;2024-03-29T12:38:15;22.60;99.90
43049;DHT22;28673;44.412;11.918;2024-03-29T12:40:43;22.50;99.90
43049;DHT22;28673;44.412;11.918;2024-03-29T12:43:10;22.50;99.90
43049;DHT22;28673;44.412;11.918;2024-03-29T12:45:40;22.40;99.90
43049;DHT22;28673;44.412;11.918;2024-03-29T12:48:17;22.30;99.90
43049;DHT22;28673;44.412;11.918;2024-03-29T12:50:44;22.30;99.90
43049;DHT22;28673;44.412;11.918;2024-03-29T12:53:12;22.30;99.90
43049;DHT22;28673;44.412;11.918;2024-03-29T12:55:40;22.20;99.90
43049;DHT22;28673;44.412;11.918;2024-03-29T12:58:08;22.00;99.90
43049;DHT22;28673;44.412;11.918;2024-03-29T13:00:40;21.90;99.90
43049;DHT22;28673;44.412;11.918;2024-03-29T13:03:06;21.80;99.90
43049;DHT22;28673;44.412;11.918;2024-03-29T13:05:35;21.80;99.90
43049;DHT22;28673;44.412;11.918;2024-03-29T13:08:05;21.70;99.90
43049;DHT22;28673;44.412;11.918;2024-03-29T13:10:32;21.70;99.90
43049;DHT22;28673;44.412;11.918;2024-03-29T13:12:58;21.60;99.90
43049;DHT22;28673;44.412;11.918;2024-03-29T13:15:26;21.60;99.90
43049;DHT22;28673;44.412;11.918;2024-03-29T13:17:53;21.60;99.90
43049;DHT22;28673;44.412;11.918;2024-03-29T13:20:20;21.60;99.90
43049;DHT22;28673;44.412;11.918;2024-03-29T13:22:47;21.60;99.90
43049;DHT22;28673;44.412;11.918;2024-03-29T13:25:16;21.50;99.90
43049;DHT22;28673;44.412;11.918;2024-03-29T13:27:43;21.40;99.90
43049;DHT22;28673;44.412;11.918;2024-03-29T13:30:11;21.40;99.90
43049;DHT22;28673;44.412;11.918;2024-03-29T13:32:38;21.40;99.90
43049;DHT22;28673;44.412;11.918;2024-03-29T13:35:08;21.30;99.90
43049;DHT22;28673;44.412;11.918;2024-03-29T13:37:43;21.30;99.90
43049;DHT22;28673;44.412;11.918;2024-03-29T13:40:12;21.30;99.90
43049;DHT22;28673;44.412;11.918;2024-03-29T13:42:38;21.20;99.90
43049;DHT22;28673;44.412;11.918;2024-03-29T13:45:05;21.20;99.90
43049;DHT22;28673;44.412;11.918;2024-03-29T13:47:42;21.10;99.90
43049;DHT22;28673;44.412;11.918;2024-03-29T13:50:09;21.10;99.90
43049;DHT22;28673;44.412;11.918;2024-03-29T13:52:36;21.10;99.90
43049;DHT22;28673;44.412;11.918;2024-03-29T13:55:02;21.10;99.90
43049;DHT22;28673;44.412;11.918;2024-03-29T13:57:29;21.10;99.90
43049;DHT22;28673;44.412;11.918;2024-03-29T13:59:55;21.10;99.90
43049;DHT22;28673;44.412;11.918;2024-03-29T14:02:20;21.10;99.90
43049;DHT22;28673;44.412;11.918;2024-03-29T14:04:48;21.00;99.90
43049;DHT22;28673;44.412;11.918;2024-03-29T14:07:15;21.00;99.90
43049;DHT22;28673;44.412;11.918;2024-03-29T14:09:46;21.00;99.90
43049;DHT22;28673;44.412;11.918;2024-03-29T14:12:13;20.90;99.90
43049;DHT22;28673;44.412;11.918;2024-03-29T14:14:39;20.80;99.90
43049;DHT22;28673;44.412;11.918;2024-03-29T14:17:10;20.80;99.90
43049;DHT22;28673;44.412;11.918;2024-03-29T14:19:36;20.60;99.90
43049;DHT22;28673;44.412;11.918;2024-03-29T14:22:05;20.70;99.90
43049;DHT22;28673;44.412;11.918;2024-03-29T14:24:32;20.60;99.90
43049;DHT22;28673;44.412;11.918;2024-03-29T14:27:02;20.60;99.90
43049;DHT22;28673;44.412;11.918;2024-03-29T14:29:32;20.60;99.90
43049;DHT22;28673;44.412;11.918;2024-03-29T14:31:58;20.60;99.90
43049;DHT22;28673;44.412;11.918;2024-03-29T14:34:24;20.60;99.90
43049;DHT22;28673;44.412;11.918;2024-03-29T14:36:51;20.50;99.90
43049;DHT22;28673;44.412;11.918;2024-03-29T14:39:17;20.40;99.90
43049;DHT22;28673;44.412;11.918;2024-03-29T14:41:47;20.40;99.90
43049;DHT22;28673;44.412;11.918;2024-03-29T14:44:15;20.30;99.90
43049;DHT22;28673;44.412;11.918;2024-03-29T14:46:41;20.30;99.90
43049;DHT22;28673;44.412;11.918;2024-03-29T14:49:07;20.30;99.90
43049;DHT22;28673;44.412;11.918;2024-03-29T14:51:36;20.30;99.90
43049;DHT22;28673;44.412;11.918;2024-03-29T14:54:02;20.30;99.90
43049;DHT22;28673;44.412;11.918;2024-03-29T14:56:33;20.30;99.90
43049;DHT22;28673;44.412;11.918;2024-03-29T14:59:06;20.30;99.90
43049;DHT22;28673;44.412;11.918;2024-03-29T15:01:35;20.20;99.90
43049;DHT22;28673;44.412;11.918;2024-03-29T15:04:01;20.10;99.90
43049;DHT22;28673;44.412;11.918;2024-03-29T15:06:27;20.00;99.90
43049;DHT22;28673;44.412;11.918;2024-03-29T15:08:55;19.90;99.90
43049;DHT22;28673;44.412;11.918;2024-03-29T15:11:24;19.90;99.90
43049;DHT22;28673;44.412;11.918;2024-03-29T15:13:50;19.80;99.90
43049;DHT22;28673;44.412;11.918;2024-03-29T15:16:19;19.70;99.90
43049;DHT22;28673;44.412;11.918;2024-03-29T15:18:46;19.60;99.90